Terminal Aerodrome Forecast
Issued by NWS Missoula, MT

Home | Current Version | Previous Version | Text Only | Print | Product List | Glossary On
Versions: 1 2 3 4 5 6 7 8 9 10 11 12 13 14 15 16 17
511
FTUS45 KMSO 201914 AAB
TAFGPI
TAF AMD
KGPI 201914Z 2019/2118 VRB03KT 3SM -SN BKN005 OVC015
     FM202100 16007KT 6SM -RA BR SCT005 OVC030
     FM210300 18008KT 5SM BR BKN040
     FM210600 19005KT 3SM BR VCFG FEW020=

USA.gov is the U.S. government's official web portal to all federal, state and local government web resources and services.